sensor_id;sensor_type;location;lat;lon;timestamp;temperature;humidity
37518;DHT22;23366;52.498;13.446;2022-08-25T00:01:58;20.60;99.90
37518;DHT22;23366;52.498;13.446;2022-08-25T00:04:26;20.60;99.90
37518;DHT22;23366;52.498;13.446;2022-08-25T00:06:54;20.50;99.90
37518;DHT22;23366;52.498;13.446;2022-08-25T00:09:23;20.50;99.90
37518;DHT22;23366;52.498;13.446;2022-08-25T00:11:50;20.50;99.90
37518;DHT22;23366;52.498;13.446;2022-08-25T00:14:24;20.50;99.90
37518;DHT22;23366;52.498;13.446;2022-08-25T00:16:50;20.50;99.90
37518;DHT22;23366;52.498;13.446;2022-08-25T00:19:23;20.50;99.90
37518;DHT22;23366;52.498;13.446;2022-08-25T00:21:49;20.40;99.90
37518;DHT22;23366;52.498;13.446;2022-08-25T00:24:17;20.40;99.90
37518;DHT22;23366;52.498;13.446;2022-08-25T00:26:46;20.40;99.90
37518;DHT22;23366;52.498;13.446;2022-08-25T00:29:12;20.40;99.90
37518;DHT22;23366;52.498;13.446;2022-08-25T00:31:39;20.30;99.90
37518;DHT22;23366;52.498;13.446;2022-08-25T00:34:20;20.30;99.90
37518;DHT22;23366;52.498;13.446;2022-08-25T00:36:47;20.30;99.90
37518;DHT22;23366;52.498;13.446;2022-08-25T00:39:16;20.30;99.90
37518;DHT22;23366;52.498;13.446;2022-08-25T00:41:42;20.30;99.90
37518;DHT22;23366;52.498;13.446;2022-08-25T00:44:10;20.30;99.90
37518;DHT22;23366;52.498;13.446;2022-08-25T00:46:40;20.20;99.90
37518;DHT22;23366;52.498;13.446;2022-08-25T00:52:15;20.20;99.90
37518;DHT22;23366;52.498;13.446;2022-08-25T00:55:04;20.20;99.90
37518;DHT22;23366;52.498;13.446;2022-08-25T00:57:35;20.20;99.90
37518;DHT22;23366;52.498;13.446;2022-08-25T01:00:10;20.20;99.90
37518;DHT22;23366;52.498;13.446;2022-08-25T01:02:37;20.20;99.90
37518;DHT22;23366;52.498;13.446;2022-08-25T01:05:03;20.20;99.90
37518;DHT22;23366;52.498;13.446;2022-08-25T01:07:28;20.20;99.90
37518;DHT22;23366;52.498;13.446;2022-08-25T01:09:54;20.20;99.90
37518;DHT22;23366;52.498;13.446;2022-08-25T01:12:20;20.10;99.90
37518;DHT22;23366;52.498;13.446;2022-08-25T01:14:47;20.10;99.90
37518;DHT22;23366;52.498;13.446;2022-08-25T01:17:15;20.10;99.90
37518;DHT22;23366;52.498;13.446;2022-08-25T01:19:41;20.10;99.90
37518;DHT22;23366;52.498;13.446;2022-08-25T01:22:07;20.10;99.90
37518;DHT22;23366;52.498;13.446;2022-08-25T01:24:44;20.10;99.90
37518;DHT22;23366;52.498;13.446;2022-08-25T01:27:11;20.10;99.90
37518;DHT22;23366;52.498;13.446;2022-08-25T01:29:37;20.10;99.90
37518;DHT22;23366;52.498;13.446;2022-08-25T01:32:08;20.10;99.90
37518;DHT22;23366;52.498;13.446;2022-08-25T01:34:36;20.10;99.90
37518;DHT22;23366;52.498;13.446;2022-08-25T01:37:03;20.10;99.90
37518;DHT22;23366;52.498;13.446;2022-08-25T01:39:30;20.10;99.90
37518;DHT22;23366;52.498;13.446;2022-08-25T01:44:35;20.00;99.90
37518;DHT22;23366;52.498;13.446;2022-08-25T01:47:02;20.10;99.90
37518;DHT22;23366;52.498;13.446;2022-08-25T01:49:28;20.10;99.90
37518;DHT22;23366;52.498;13.446;2022-08-25T01:52:05;20.10;99.90
37518;DHT22;23366;52.498;13.446;2022-08-25T01:54:32;20.10;99.90
37518;DHT22;23366;52.498;13.446;2022-08-25T01:56:58;20.10;99.90
37518;DHT22;23366;52.498;13.446;2022-08-25T01:59:24;20.10;99.90
37518;DHT22;23366;52.498;13.446;2022-08-25T02:01:51;20.10;99.90
37518;DHT22;23366;52.498;13.446;2022-08-25T02:04:16;20.10;99.90
37518;DHT22;23366;52.498;13.446;2022-08-25T02:06:42;20.10;99.90
37518;DHT22;23366;52.498;13.446;2022-08-25T02:09:13;20.10;99.90
37518;DHT22;23366;52.498;13.446;2022-08-25T02:11:41;20.20;99.90
37518;DHT22;23366;52.498;13.446;2022-08-25T02:14:08;20.10;99.90
37518;DHT22;23366;52.498;13.446;2022-08-25T02:16:35;20.20;99.90
37518;DHT22;23366;52.498;13.446;2022-08-25T02:19:03;20.10;99.90
37518;DHT22;23366;52.498;13.446;2022-08-25T02:21:29;20.10;99.90
37518;DHT22;23366;52.498;13.446;2022-08-25T02:23:55;20.10;99.90
37518;DHT22;23366;52.498;13.446;2022-08-25T02:26:21;20.10;99.90
37518;DHT22;23366;52.498;13.446;2022-08-25T02:28:49;20.00;99.90
37518;DHT22;23366;52.498;13.446;2022-08-25T02:31:16;20.00;99.90
37518;DHT22;23366;52.498;13.446;2022-08-25T02:33:42;20.00;99.90
37518;DHT22;23366;52.498;13.446;2022-08-25T02:36:08;20.00;99.90
37518;DHT22;23366;52.498;13.446;2022-08-25T02:38:35;20.00;99.90
37518;DHT22;23366;52.498;13.446;2022-08-25T02:41:08;19.90;99.90
37518;DHT22;23366;52.498;13.446;2022-08-25T02:43:36;20.00;99.90
37518;DHT22;23366;52.498;13.446;2022-08-25T02:46:01;20.00;99.90
37518;DHT22;23366;52.498;13.446;2022-08-25T02:48:27;20.00;99.90
37518;DHT22;23366;52.498;13.446;2022-08-25T02:50:52;19.90;99.90
37518;DHT22;23366;52.498;13.446;2022-08-25T02:53:21;19.90;99.90
37518;DHT22;23366;52.498;13.446;2022-08-25T02:55:46;19.90;99.90
37518;DHT22;23366;52.498;13.446;2022-08-25T02:58:13;19.80;99.90
37518;DHT22;23366;52.498;13.446;2022-08-25T03:00:39;19.80;99.90
37518;DHT22;23366;52.498;13.446;2022-08-25T03:03:05;19.80;99.90
37518;DHT22;23366;52.498;13.446;2022-08-25T03:05:32;19.80;99.90
37518;DHT22;23366;52.498;13.446;2022-08-25T03:07:57;19.70;99.90
37518;DHT22;23366;52.498;13.446;2022-08-25T03:10:24;19.70;99.90
37518;DHT22;23366;52.498;13.446;2022-08-25T03:12:50;19.70;99.90
37518;DHT22;23366;52.498;13.446;2022-08-25T03:15:16;19.70;99.90
37518;DHT22;23366;52.498;13.446;2022-08-25T03:17:45;19.70;99.90
37518;DHT22;23366;52.498;13.446;2022-08-25T03:20:12;19.60;99.90
37518;DHT22;23366;52.498;13.446;2022-08-25T03:22:37;19.60;99.90
37518;DHT22;23366;52.498;13.446;2022-08-25T03:25:04;19.70;99.90
37518;DHT22;23366;52.498;13.446;2022-08-25T03:27:48;19.70;99.90
37518;DHT22;23366;52.498;13.446;2022-08-25T03:30:16;19.70;99.90
37518;DHT22;23366;52.498;13.446;2022-08-25T03:32:42;19.70;99.90
37518;DHT22;23366;52.498;13.446;2022-08-25T03:35:08;19.70;99.90
37518;DHT22;23366;52.498;13.446;2022-08-25T03:37:34;19.70;99.90
37518;DHT22;23366;52.498;13.446;2022-08-25T03:40:04;19.60;99.90
37518;DHT22;23366;52.498;13.446;2022-08-25T03:42:30;19.60;99.90
37518;DHT22;23366;52.498;13.446;2022-08-25T03:44:56;19.60;99.90
37518;DHT22;23366;52.498;13.446;2022-08-25T03:47:22;19.50;99.90
37518;DHT22;23366;52.498;13.446;2022-08-25T03:49:50;19.40;99.90
37518;DHT22;23366;52.498;13.446;2022-08-25T03:52:16;19.50;99.90
37518;DHT22;23366;52.498;13.446;2022-08-25T03:54:43;19.40;99.90
37518;DHT22;23366;52.498;13.446;2022-08-25T03:57:10;19.40;99.90
37518;DHT22;23366;52.498;13.446;2022-08-25T03:59:36;19.50;99.90
37518;DHT22;23366;52.498;13.446;2022-08-25T04:02:06;19.50;99.90
37518;DHT22;23366;52.498;13.446;2022-08-25T04:04:32;19.50;99.90
37518;DHT22;23366;52.498;13.446;2022-08-25T04:06:59;19.50;99.90
37518;DHT22;23366;52.498;13.446;2022-08-25T04:09:25;19.40;99.90
37518;DHT22;23366;52.498;13.446;2022-08-25T04:11:51;19.40;99.90
37518;DHT22;23366;52.498;13.446;2022-08-25T04:14:17;19.30;99.90
37518;DHT22;23366;52.498;13.446;2022-08-25T04:16:44;19.30;99.90
37518;DHT22;23366;52.498;13.446;2022-08-25T04:19:10;19.30;99.90
37518;DHT22;23366;52.498;13.446;2022-08-25T04:21:37;19.20;99.90
37518;DHT22;23366;52.498;13.446;2022-08-25T04:24:04;19.30;99.90
37518;DHT22;23366;52.498;13.446;2022-08-25T04:26:35;19.30;99.90
37518;DHT22;23366;52.498;13.446;2022-08-25T04:29:04;19.40;99.90
37518;DHT22;23366;52.498;13.446;2022-08-25T04:31:31;19.40;99.90
37518;DHT22;23366;52.498;13.446;2022-08-25T04:33:58;19.40;99.90
37518;DHT22;23366;52.498;13.446;2022-08-25T04:36:25;19.30;99.90
37518;DHT22;23366;52.498;13.446;2022-08-25T04:38:51;19.30;99.90
37518;DHT22;23366;52.498;13.446;2022-08-25T04:41:18;19.30;99.90
37518;DHT22;23366;52.498;13.446;2022-08-25T04:43:44;19.40;99.90
37518;DHT22;23366;52.498;13.446;2022-08-25T04:46:22;19.50;99.90
37518;DHT22;23366;52.498;13.446;2022-08-25T04:48:50;19.60;99.90
37518;DHT22;23366;52.498;13.446;2022-08-25T04:51:19;19.70;99.90
37518;DHT22;23366;52.498;13.446;2022-08-25T04:53:45;19.70;99.90
37518;DHT22;23366;52.498;13.446;2022-08-25T04:56:16;19.90;99.90
37518;DHT22;23366;52.498;13.446;2022-08-25T04:58:43;20.00;99.90
37518;DHT22;23366;52.498;13.446;2022-08-25T05:01:13;20.10;99.90
37518;DHT22;23366;52.498;13.446;2022-08-25T05:03:43;20.10;99.90
37518;DHT22;23366;52.498;13.446;2022-08-25T05:06:09;20.00;99.90
37518;DHT22;23366;52.498;13.446;2022-08-25T05:08:36;20.00;99.90
37518;DHT22;23366;52.498;13.446;2022-08-25T05:11:06;20.00;99.90
37518;DHT22;23366;52.498;13.446;2022-08-25T05:13:33;20.00;99.90
37518;DHT22;23366;52.498;13.446;2022-08-25T05:16:00;20.00;99.90
37518;DHT22;23366;52.498;13.446;2022-08-25T05:18:28;19.80;99.90
37518;DHT22;23366;52.498;13.446;2022-08-25T05:21:01;19.80;99.90
37518;DHT22;23366;52.498;13.446;2022-08-25T05:23:27;19.60;99.90
37518;DHT22;23366;52.498;13.446;2022-08-25T05:25:53;19.60;99.90
37518;DHT22;23366;52.498;13.446;2022-08-25T05:28:19;19.70;99.90
37518;DHT22;23366;52.498;13.446;2022-08-25T05:30:45;19.70;99.90
37518;DHT22;23366;52.498;13.446;2022-08-25T05:33:14;19.80;99.90
37518;DHT22;23366;52.498;13.446;2022-08-25T05:35:40;19.90;99.90
37518;DHT22;23366;52.498;13.446;2022-08-25T05:38:06;19.90;99.90
37518;DHT22;23366;52.498;13.446;2022-08-25T05:40:31;19.90;99.90
37518;DHT22;23366;52.498;13.446;2022-08-25T05:42:57;19.90;99.90
37518;DHT22;23366;52.498;13.446;2022-08-25T05:45:23;20.00;99.90
37518;DHT22;23366;52.498;13.446;2022-08-25T05:47:49;20.00;99.90
37518;DHT22;23366;52.498;13.446;2022-08-25T05:50:15;20.00;99.90
37518;DHT22;23366;52.498;13.446;2022-08-25T05:52:41;20.10;99.90
37518;DHT22;23366;52.498;13.446;2022-08-25T05:55:07;20.20;99.90
37518;DHT22;23366;52.498;13.446;2022-08-25T05:57:33;20.10;99.90
37518;DHT22;23366;52.498;13.446;2022-08-25T06:00:04;20.10;99.90
37518;DHT22;23366;52.498;13.446;2022-08-25T06:02:30;19.90;99.90
37518;DHT22;23366;52.498;13.446;2022-08-25T06:08:03;20.00;99.90
37518;DHT22;23366;52.498;13.446;2022-08-25T06:17:22;19.90;99.90
37518;DHT22;23366;52.498;13.446;2022-08-25T06:19:47;20.00;99.90
37518;DHT22;23366;52.498;13.446;2022-08-25T06:22:13;20.10;99.90
37518;DHT22;23366;52.498;13.446;2022-08-25T06:24:38;20.10;99.90
37518;DHT22;23366;52.498;13.446;2022-08-25T06:27:04;20.10;99.90
37518;DHT22;23366;52.498;13.446;2022-08-25T06:29:30;20.10;99.90
37518;DHT22;23366;52.498;13.446;2022-08-25T06:31:55;20.10;99.90
37518;DHT22;23366;52.498;13.446;2022-08-25T06:34:21;20.20;99.90
37518;DHT22;23366;52.498;13.446;2022-08-25T06:36:47;20.10;99.90
37518;DHT22;23366;52.498;13.446;2022-08-25T06:39:14;20.20;99.90
37518;DHT22;23366;52.498;13.446;2022-08-25T06:41:40;20.10;99.90
37518;DHT22;23366;52.498;13.446;2022-08-25T06:44:05;20.20;99.90
37518;DHT22;23366;52.498;13.446;2022-08-25T06:46:32;20.10;99.90
37518;DHT22;23366;52.498;13.446;2022-08-25T06:48:58;20.10;99.90
37518;DHT22;23366;52.498;13.446;2022-08-25T06:51:25;20.10;99.90
37518;DHT22;23366;52.498;13.446;2022-08-25T06:53:52;20.10;99.90
37518;DHT22;23366;52.498;13.446;2022-08-25T06:56:19;20.20;99.90
37518;DHT22;23366;52.498;13.446;2022-08-25T06:58:46;20.30;99.90
37518;DHT22;23366;52.498;13.446;2022-08-25T07:01:13;20.40;99.90
37518;DHT22;23366;52.498;13.446;2022-08-25T07:03:39;20.50;99.90
37518;DHT22;23366;52.498;13.446;2022-08-25T07:06:06;20.60;99.90
37518;DHT22;23366;52.498;13.446;2022-08-25T07:08:32;20.60;99.90
37518;DHT22;23366;52.498;13.446;2022-08-25T07:10:57;20.60;99.90
37518;DHT22;23366;52.498;13.446;2022-08-25T07:13:28;20.50;99.90
37518;DHT22;23366;52.498;13.446;2022-08-25T07:15:55;20.50;99.90
37518;DHT22;23366;52.498;13.446;2022-08-25T07:18:21;20.70;99.90
37518;DHT22;23366;52.498;13.446;2022-08-25T07:20:47;20.90;99.90
37518;DHT22;23366;52.498;13.446;2022-08-25T07:23:13;21.00;99.90
37518;DHT22;23366;52.498;13.446;2022-08-25T07:25:38;21.10;99.90
37518;DHT22;23366;52.498;13.446;2022-08-25T07:28:04;21.40;99.90
37518;DHT22;23366;52.498;13.446;2022-08-25T07:30:30;21.50;99.90
37518;DHT22;23366;52.498;13.446;2022-08-25T07:32:56;21.60;99.90
37518;DHT22;23366;52.498;13.446;2022-08-25T07:35:23;21.40;99.90
37518;DHT22;23366;52.498;13.446;2022-08-25T07:37:54;21.30;99.90
37518;DHT22;23366;52.498;13.446;2022-08-25T07:40:25;21.50;99.90
37518;DHT22;23366;52.498;13.446;2022-08-25T07:42:54;21.40;99.90
37518;DHT22;23366;52.498;13.446;2022-08-25T07:45:22;21.30;99.90
37518;DHT22;23366;52.498;13.446;2022-08-25T07:48:00;21.20;99.90
37518;DHT22;23366;52.498;13.446;2022-08-25T07:50:27;21.30;99.90
37518;DHT22;23366;52.498;13.446;2022-08-25T07:52:54;21.40;99.90
37518;DHT22;23366;52.498;13.446;2022-08-25T07:55:20;21.40;99.90
37518;DHT22;23366;52.498;13.446;2022-08-25T07:57:45;21.50;99.90
37518;DHT22;23366;52.498;13.446;2022-08-25T08:00:13;21.70;99.90
37518;DHT22;23366;52.498;13.446;2022-08-25T08:02:40;21.80;99.90
37518;DHT22;23366;52.498;13.446;2022-08-25T08:05:07;22.00;99.90
37518;DHT22;23366;52.498;13.446;2022-08-25T08:07:33;22.00;99.90
37518;DHT22;23366;52.498;13.446;2022-08-25T08:09:59;22.20;99.90
37518;DHT22;23366;52.498;13.446;2022-08-25T08:12:25;22.60;99.90
37518;DHT22;23366;52.498;13.446;2022-08-25T08:14:51;22.90;99.90
37518;DHT22;23366;52.498;13.446;2022-08-25T08:17:18;23.20;99.90
37518;DHT22;23366;52.498;13.446;2022-08-25T08:19:43;23.20;99.90
37518;DHT22;23366;52.498;13.446;2022-08-25T08:22:09;23.30;99.90
37518;DHT22;23366;52.498;13.446;2022-08-25T08:24:40;23.50;99.90
37518;DHT22;23366;52.498;13.446;2022-08-25T08:27:09;23.50;99.90
37518;DHT22;23366;52.498;13.446;2022-08-25T08:29:36;23.70;99.90
37518;DHT22;23366;52.498;13.446;2022-08-25T08:32:03;23.90;99.90
37518;DHT22;23366;52.498;13.446;2022-08-25T08:34:30;24.70;99.90
37518;DHT22;23366;52.498;13.446;2022-08-25T08:36:56;25.70;99.90
37518;DHT22;23366;52.498;13.446;2022-08-25T08:39:22;26.70;99.90
37518;DHT22;23366;52.498;13.446;2022-08-25T08:41:56;27.50;99.90
37518;DHT22;23366;52.498;13.446;2022-08-25T08:44:53;29.00;99.90
37518;DHT22;23366;52.498;13.446;2022-08-25T08:47:49;29.00;99.90
37518;DHT22;23366;52.498;13.446;2022-08-25T08:50:28;28.80;99.90
37518;DHT22;23366;52.498;13.446;2022-08-25T08:57:59;26.30;99.90
37518;DHT22;23366;52.498;13.446;2022-08-25T09:00:26;25.70;99.90
37518;DHT22;23366;52.498;13.446;2022-08-25T09:06:13;25.70;99.90
37518;DHT22;23366;52.498;13.446;2022-08-25T09:08:42;25.60;99.90
37518;DHT22;23366;52.498;13.446;2022-08-25T09:11:22;25.40;99.90
37518;DHT22;23366;52.498;13.446;2022-08-25T09:14:07;25.60;99.90
37518;DHT22;23366;52.498;13.446;2022-08-25T09:19:51;26.60;99.90
37518;DHT22;23366;52.498;13.446;2022-08-25T09:25:43;25.80;99.90
37518;DHT22;23366;52.498;13.446;2022-08-25T09:28:39;26.00;99.90
37518;DHT22;23366;52.498;13.446;2022-08-25T09:31:23;25.90;99.90
37518;DHT22;23366;52.498;13.446;2022-08-25T09:33:53;25.30;99.90
37518;DHT22;23366;52.498;13.446;2022-08-25T09:36:19;25.30;99.90
37518;DHT22;23366;52.498;13.446;2022-08-25T09:38:45;25.20;99.90
37518;DHT22;23366;52.498;13.446;2022-08-25T09:41:15;25.40;99.90
37518;DHT22;23366;52.498;13.446;2022-08-25T09:43:42;25.80;99.90
37518;DHT22;23366;52.498;13.446;2022-08-25T09:46:14;26.10;99.90
37518;DHT22;23366;52.498;13.446;2022-08-25T09:48:45;25.70;99.90
37518;DHT22;23366;52.498;13.446;2022-08-25T09:51:25;25.70;99.90
37518;DHT22;23366;52.498;13.446;2022-08-25T09:59:32;25.80;99.90
37518;DHT22;23366;52.498;13.446;2022-08-25T10:02:04;26.10;99.90
37518;DHT22;23366;52.498;13.446;2022-08-25T10:04:45;25.90;99.90
37518;DHT22;23366;52.498;13.446;2022-08-25T10:07:28;25.50;99.90
37518;DHT22;23366;52.498;13.446;2022-08-25T10:09:55;25.70;99.90
37518;DHT22;23366;52.498;13.446;2022-08-25T10:12:41;26.00;99.90
37518;DHT22;23366;52.498;13.446;2022-08-25T10:17:40;25.90;99.90
37518;DHT22;23366;52.498;13.446;2022-08-25T10:20:26;25.90;99.90
37518;DHT22;23366;52.498;13.446;2022-08-25T10:23:11;26.20;99.90
37518;DHT22;23366;52.498;13.446;2022-08-25T10:25:43;26.10;99.90
37518;DHT22;23366;52.498;13.446;2022-08-25T10:28:25;26.20;99.90
37518;DHT22;23366;52.498;13.446;2022-08-25T10:31:12;26.40;99.90
37518;DHT22;23366;52.498;13.446;2022-08-25T10:36:31;27.00;99.90
37518;DHT22;23366;52.498;13.446;2022-08-25T10:39:01;27.00;99.90
37518;DHT22;23366;52.498;13.446;2022-08-25T10:41:49;27.40;99.90
37518;DHT22;23366;52.498;13.446;2022-08-25T10:55:55;27.30;99.90
37518;DHT22;23366;52.498;13.446;2022-08-25T11:04:47;27.20;99.90
37518;DHT22;23366;52.498;13.446;2022-08-25T11:07:30;27.10;99.90
37518;DHT22;23366;52.498;13.446;2022-08-25T11:10:10;27.10;99.90
37518;DHT22;23366;52.498;13.446;2022-08-25T11:12:43;27.00;99.90
37518;DHT22;23366;52.498;13.446;2022-08-25T11:15:19;27.00;99.90
37518;DHT22;23366;52.498;13.446;2022-08-25T11:17:50;26.80;99.90
37518;DHT22;23366;52.498;13.446;2022-08-25T11:20:26;26.90;99.90
37518;DHT22;23366;52.498;13.446;2022-08-25T11:23:16;27.10;99.90
37518;DHT22;23366;52.498;13.446;2022-08-25T11:25:46;27.50;99.90
37518;DHT22;23366;52.498;13.446;2022-08-25T11:30:43;27.70;99.90
37518;DHT22;23366;52.498;13.446;2022-08-25T11:33:13;27.70;99.90
37518;DHT22;23366;52.498;13.446;2022-08-25T11:35:55;27.90;99.90
37518;DHT22;23366;52.498;13.446;2022-08-25T11:38:24;28.00;99.90
37518;DHT22;23366;52.498;13.446;2022-08-25T11:51:50;27.30;99.90
37518;DHT22;23366;52.498;13.446;2022-08-25T11:57:08;27.80;99.90
37518;DHT22;23366;52.498;13.446;2022-08-25T12:08:01;27.50;99.90
37518;DHT22;23366;52.498;13.446;2022-08-25T12:11:04;27.40;99.90
37518;DHT22;23366;52.498;13.446;2022-08-25T12:13:46;27.30;99.90
37518;DHT22;23366;52.498;13.446;2022-08-25T12:16:36;27.10;99.90
37518;DHT22;23366;52.498;13.446;2022-08-25T12:29:45;26.60;99.90
37518;DHT22;23366;52.498;13.446;2022-08-25T12:37:24;26.70;99.90
37518;DHT22;23366;52.498;13.446;2022-08-25T12:42:21;26.70;99.90
37518;DHT22;23366;52.498;13.446;2022-08-25T12:45:11;26.90;99.90
37518;DHT22;23366;52.498;13.446;2022-08-25T12:47:43;27.00;99.90
37518;DHT22;23366;52.498;13.446;2022-08-25T12:50:35;27.10;99.90
37518;DHT22;23366;52.498;13.446;2022-08-25T12:53:21;27.30;99.90
37518;DHT22;23366;52.498;13.446;2022-08-25T12:56:00;27.20;99.90
37518;DHT22;23366;52.498;13.446;2022-08-25T12:58:45;27.00;99.90
37518;DHT22;23366;52.498;13.446;2022-08-25T13:10:38;26.70;99.90
37518;DHT22;23366;52.498;13.446;2022-08-25T13:13:08;26.70;99.90
37518;DHT22;23366;52.498;13.446;2022-08-25T13:15:45;26.80;99.90
37518;DHT22;23366;52.498;13.446;2022-08-25T13:18:24;26.70;99.90
37518;DHT22;23366;52.498;13.446;2022-08-25T13:21:18;26.80;99.90
37518;DHT22;23366;52.498;13.446;2022-08-25T13:23:53;26.90;99.90
37518;DHT22;23366;52.498;13.446;2022-08-25T13:26:27;27.00;99.90
37518;DHT22;23366;52.498;13.446;2022-08-25T13:29:15;27.10;99.90
37518;DHT22;23366;52.498;13.446;2022-08-25T13:32:11;27.20;99.90
37518;DHT22;23366;52.498;13.446;2022-08-25T13:34:39;27.30;99.90
37518;DHT22;23366;52.498;13.446;2022-08-25T13:37:09;27.30;99.90
37518;DHT22;23366;52.498;13.446;2022-08-25T13:40:26;27.20;99.90
37518;DHT22;23366;52.498;13.446;2022-08-25T13:43:06;27.20;99.90
37518;DHT22;23366;52.498;13.446;2022-08-25T13:45:42;27.20;99.90
37518;DHT22;23366;52.498;13.446;2022-08-25T13:48:12;27.10;99.90
37518;DHT22;23366;52.498;13.446;2022-08-25T13:50:40;27.10;99.90
37518;DHT22;23366;52.498;13.446;2022-08-25T13:53:12;27.00;99.90
37518;DHT22;23366;52.498;13.446;2022-08-25T13:55:48;27.00;99.90
37518;DHT22;23366;52.498;13.446;2022-08-25T14:03:37;26.80;99.90
37518;DHT22;23366;52.498;13.446;2022-08-25T14:11:39;27.00;99.90
37518;DHT22;23366;52.498;13.446;2022-08-25T14:16:51;27.00;99.90
37518;DHT22;23366;52.498;13.446;2022-08-25T14:19:20;27.00;99.90
37518;DHT22;23366;52.498;13.446;2022-08-25T14:21:48;26.90;99.90
37518;DHT22;23366;52.498;13.446;2022-08-25T14:24:18;26.80;99.90
37518;DHT22;23366;52.498;13.446;2022-08-25T14:26:44;26.70;99.90
37518;DHT22;23366;52.498;13.446;2022-08-25T14:29:11;26.80;99.90
37518;DHT22;23366;52.498;13.446;2022-08-25T14:31:39;26.80;99.90
37518;DHT22;23366;52.498;13.446;2022-08-25T14:34:17;26.80;99.90
37518;DHT22;23366;52.498;13.446;2022-08-25T14:36:44;26.90;99.90
37518;DHT22;23366;52.498;13.446;2022-08-25T14:39:10;27.00;99.90
37518;DHT22;23366;52.498;13.446;2022-08-25T14:41:37;27.00;99.90
37518;DHT22;23366;52.498;13.446;2022-08-25T14:44:05;27.00;99.90
37518;DHT22;23366;52.498;13.446;2022-08-25T14:46:34;26.90;99.90
37518;DHT22;23366;52.498;13.446;2022-08-25T14:49:04;26.90;99.90
37518;DHT22;23366;52.498;13.446;2022-08-25T14:51:31;26.80;99.90
37518;DHT22;23366;52.498;13.446;2022-08-25T14:54:04;26.80;99.90
37518;DHT22;23366;52.498;13.446;2022-08-25T14:56:31;26.70;99.90
37518;DHT22;23366;52.498;13.446;2022-08-25T14:58:56;26.80;99.90
37518;DHT22;23366;52.498;13.446;2022-08-25T15:01:23;26.80;99.90
37518;DHT22;23366;52.498;13.446;2022-08-25T15:03:52;26.90;99.90
37518;DHT22;23366;52.498;13.446;2022-08-25T15:06:18;27.00;99.90
37518;DHT22;23366;52.498;13.446;2022-08-25T15:08:44;27.00;99.90
37518;DHT22;23366;52.498;13.446;2022-08-25T15:11:29;27.10;99.90
37518;DHT22;23366;52.498;13.446;2022-08-25T15:13:55;27.20;99.90
37518;DHT22;23366;52.498;13.446;2022-08-25T15:16:27;27.20;99.90
37518;DHT22;23366;52.498;13.446;2022-08-25T15:18:53;27.20;99.90
37518;DHT22;23366;52.498;13.446;2022-08-25T15:21:19;27.10;99.90
37518;DHT22;23366;52.498;13.446;2022-08-25T15:23:44;27.00;99.90
37518;DHT22;23366;52.498;13.446;2022-08-25T15:26:12;27.00;99.90
37518;DHT22;23366;52.498;13.446;2022-08-25T15:28:43;26.90;99.90
37518;DHT22;23366;52.498;13.446;2022-08-25T15:31:11;26.80;99.90
37518;DHT22;23366;52.498;13.446;2022-08-25T15:33:37;26.80;99.90
37518;DHT22;23366;52.498;13.446;2022-08-25T15:36:08;26.60;99.90
37518;DHT22;23366;52.498;13.446;2022-08-25T15:38:39;26.60;99.90
37518;DHT22;23366;52.498;13.446;2022-08-25T15:41:10;26.70;99.90
37518;DHT22;23366;52.498;13.446;2022-08-25T15:43:36;26.70;99.90
37518;DHT22;23366;52.498;13.446;2022-08-25T15:46:03;26.70;99.90
37518;DHT22;23366;52.498;13.446;2022-08-25T15:48:30;26.70;99.90
37518;DHT22;23366;52.498;13.446;2022-08-25T15:50:56;26.70;99.90
37518;DHT22;23366;52.498;13.446;2022-08-25T15:53:23;26.60;99.90
37518;DHT22;23366;52.498;13.446;2022-08-25T15:55:50;26.60;99.90
37518;DHT22;23366;52.498;13.446;2022-08-25T15:58:16;26.60;99.90
37518;DHT22;23366;52.498;13.446;2022-08-25T16:00:42;26.60;99.90
37518;DHT22;23366;52.498;13.446;2022-08-25T16:03:08;26.60;99.90
37518;DHT22;23366;52.498;13.446;2022-08-25T16:05:39;26.60;99.90
37518;DHT22;23366;52.498;13.446;2022-08-25T16:08:05;26.60;99.90
37518;DHT22;23366;52.498;13.446;2022-08-25T16:10:35;26.60;99.90
37518;DHT22;23366;52.498;13.446;2022-08-25T16:13:03;26.60;99.90
37518;DHT22;23366;52.498;13.446;2022-08-25T16:15:29;26.60;99.90
37518;DHT22;23366;52.498;13.446;2022-08-25T16:17:57;26.60;99.90
37518;DHT22;23366;52.498;13.446;2022-08-25T16:20:22;26.70;99.90
37518;DHT22;23366;52.498;13.446;2022-08-25T16:22:49;26.70;99.90
37518;DHT22;23366;52.498;13.446;2022-08-25T16:25:14;26.80;99.90
37518;DHT22;23366;52.498;13.446;2022-08-25T16:27:40;26.80;99.90
37518;DHT22;23366;52.498;13.446;2022-08-25T16:30:10;26.80;99.90
37518;DHT22;23366;52.498;13.446;2022-08-25T16:32:36;26.80;99.90
37518;DHT22;23366;52.498;13.446;2022-08-25T16:35:03;26.70;99.90
37518;DHT22;23366;52.498;13.446;2022-08-25T16:37:29;26.60;99.90
37518;DHT22;23366;52.498;13.446;2022-08-25T16:39:55;26.50;99.90
37518;DHT22;23366;52.498;13.446;2022-08-25T16:42:23;26.40;99.90
37518;DHT22;23366;52.498;13.446;2022-08-25T16:44:49;26.40;99.90
37518;DHT22;23366;52.498;13.446;2022-08-25T16:47:14;26.30;99.90
37518;DHT22;23366;52.498;13.446;2022-08-25T16:49:41;26.30;99.90
37518;DHT22;23366;52.498;13.446;2022-08-25T16:52:07;26.20;99.90
37518;DHT22;23366;52.498;13.446;2022-08-25T16:54:53;26.20;99.90
37518;DHT22;23366;52.498;13.446;2022-08-25T16:57:38;26.10;99.90
37518;DHT22;23366;52.498;13.446;2022-08-25T17:00:05;26.10;99.90
37518;DHT22;23366;52.498;13.446;2022-08-25T17:02:32;26.00;99.90
37518;DHT22;23366;52.498;13.446;2022-08-25T17:04:58;26.00;99.90
37518;DHT22;23366;52.498;13.446;2022-08-25T17:07:23;26.00;99.90
37518;DHT22;23366;52.498;13.446;2022-08-25T17:09:49;26.00;99.90
37518;DHT22;23366;52.498;13.446;2022-08-25T17:12:14;26.00;99.90
37518;DHT22;23366;52.498;13.446;2022-08-25T17:14:40;25.90;99.90
37518;DHT22;23366;52.498;13.446;2022-08-25T17:17:05;25.90;99.90
37518;DHT22;23366;52.498;13.446;2022-08-25T17:19:31;26.00;99.90
37518;DHT22;23366;52.498;13.446;2022-08-25T17:21:57;26.00;99.90
37518;DHT22;23366;52.498;13.446;2022-08-25T17:24:23;26.00;99.90
37518;DHT22;23366;52.498;13.446;2022-08-25T17:26:48;26.00;99.90
37518;DHT22;23366;52.498;13.446;2022-08-25T17:29:15;26.00;99.90
37518;DHT22;23366;52.498;13.446;2022-08-25T17:31:42;26.00;99.90
37518;DHT22;23366;52.498;13.446;2022-08-25T17:34:12;26.00;99.90
37518;DHT22;23366;52.498;13.446;2022-08-25T17:36:39;25.90;99.90